Time;durP1;ratioP1;P1;durP2;ratioP2;P2;SDS_P1;SDS_P2;PMS_P1;PMS_P2;Temp;Humidity;BMP_temperature;BMP_pressure;BME280_temperature;BME280_humidity;BME280_pressure;Samples;Min_cycle;Max_cycle;Signal;HPM_P1;HPM_P2
2022/07/23 00:00:50;;;;;;;15.38;11.97;;;;;;;20.31;62.28;98858.02;1353564;83;81785;-73
2022/07/23 00:02:51;;;;;;;16.12;10.80;;;;;;;20.31;62.33;98857.55;1354296;85;21050;-72
2022/07/23 00:04:53;;;;;;;17.27;11.15;;;;;;;20.31;62.36;98856.69;1352407;85;81051;-73
2022/07/23 00:06:54;;;;;;;19.17;11.15;;;;;;;20.31;62.39;98850.00;1353817;85;21072;-72
2022/07/23 00:08:55;;;;;;;18.50;11.03;;;;;;;20.28;62.41;98855.13;1355286;85;21045;-72
2022/07/23 00:10:56;;;;;;;13.13;10.80;;;;;;;20.27;62.46;98853.46;1355060;85;82488;-72
2022/07/23 00:12:57;;;;;;;15.00;10.60;;;;;;;20.27;62.51;98852.59;1356752;85;21059;-72
2022/07/23 00:14:58;;;;;;;27.75;10.35;;;;;;;20.25;62.52;98855.41;1351192;85;81039;-73
2022/07/23 00:16:59;;;;;;;15.08;11.10;;;;;;;20.23;62.51;98848.87;1355108;85;21134;-71
2022/07/23 00:19:02;;;;;;;18.55;10.98;;;;;;;20.23;62.56;98849.38;1354130;85;21091;-72
2022/07/23 00:21:04;;;;;;;11.88;10.68;;;;;;;20.20;62.55;98842.46;1353695;83;81804;-72
2022/07/23 00:23:05;;;;;;;17.10;10.82;;;;;;;20.21;62.61;98844.16;1358273;85;21038;-73
2022/07/23 00:25:06;;;;;;;13.75;10.82;;;;;;;20.20;62.62;98839.78;1354160;83;80954;-72
2022/07/23 00:27:07;;;;;;;15.68;9.83;;;;;;;20.17;62.64;98842.75;1356030;85;21043;-72
2022/07/23 00:29:08;;;;;;;16.67;10.65;;;;;;;20.14;62.67;98841.66;1355925;85;21054;-72
2022/07/23 00:31:11;;;;;;;26.02;11.08;;;;;;;20.13;62.72;98844.48;1351376;85;82325;-72
2022/07/23 00:33:12;;;;;;;16.48;10.50;;;;;;;20.13;62.74;98849.83;1352511;85;21031;-73
2022/07/23 00:35:13;;;;;;;13.78;10.58;;;;;;;20.13;62.76;98851.17;1353694;83;81762;-73
2022/07/23 00:37:14;;;;;;;25.25;10.43;;;;;;;20.14;62.80;98852.87;1353981;85;21335;-72
2022/07/23 00:39:15;;;;;;;13.00;10.50;;;;;;;20.10;62.82;98853.62;1354770;85;21074;-72
2022/07/23 00:41:17;;;;;;;18.23;11.43;;;;;;;20.08;62.85;98856.44;1354117;84;81982;-73
2022/07/23 00:43:24;;;;;;;27.40;11.83;;;;;;;20.06;62.97;98852.20;1363929;84;21076;-72
2022/07/23 00:45:26;;;;;;;17.52;10.90;;;;;;;20.02;63.03;98854.80;1365757;84;81928;-73
2022/07/23 00:47:28;;;;;;;15.68;11.12;;;;;;;19.99;63.07;98846.59;1368392;84;21054;-73
2022/07/23 00:49:30;;;;;;;19.67;10.80;;;;;;;19.95;63.11;98850.98;1368988;84;81332;-73
2022/07/23 00:51:31;;;;;;;24.80;11.85;;;;;;;19.89;63.18;98852.39;1401622;83;21042;-73
2022/07/23 00:53:33;;;;;;;22.50;12.05;;;;;;;19.88;63.29;98854.23;1379072;83;20983;-72
2022/07/23 00:55:36;;;;;;;14.20;11.57;;;;;;;19.85;63.33;98853.14;1363741;84;81773;-73
2022/07/23 00:57:39;;;;;;;17.25;11.08;;;;;;;19.81;63.45;98862.41;1369162;84;21613;-72
2022/07/23 00:59:40;;;;;;;13.60;11.43;;;;;;;19.78;63.55;98856.48;1359808;83;82025;-72
2022/07/23 01:01:43;;;;;;;19.87;11.85;;;;;;;19.74;63.60;98851.88;1367681;84;21343;-72
2022/07/23 01:03:45;;;;;;;19.92;11.78;;;;;;;19.71;63.71;98849.48;1351253;84;21128;-74
2022/07/23 01:05:46;;;;;;;16.40;11.38;;;;;;;19.69;63.84;98858.15;1364024;83;81145;-72
2022/07/23 01:07:47;;;;;;;13.08;11.75;;;;;;;19.65;63.96;98856.73;1368368;84;21026;-72
2022/07/23 01:09:51;;;;;;;14.43;11.95;;;;;;;19.60;64.06;98857.11;1367030;83;81942;-73
2022/07/23 01:11:54;;;;;;;17.77;11.78;;;;;;;19.57;64.13;98851.53;1370026;84;21541;-72
2022/07/23 01:13:55;;;;;;;17.98;12.65;;;;;;;19.53;64.26;98848.78;1370649;84;21628;-73
2022/07/23 01:15:58;;;;;;;17.17;12.93;;;;;;;19.51;64.33;98851.25;1367231;84;81127;-74
2022/07/23 01:18:00;;;;;;;16.25;11.63;;;;;;;19.48;64.41;98856.38;1368097;84;21148;-74
2022/07/23 01:20:01;;;;;;;25.02;11.28;;;;;;;19.46;64.49;98850.30;1367173;84;82285;-74
2022/07/23 01:22:03;;;;;;;15.85;11.20;;;;;;;19.42;64.55;98850.20;1368623;84;21070;-72
2022/07/23 01:24:05;;;;;;;14.18;10.90;;;;;;;19.37;64.57;98850.62;1368919;84;21197;-73
2022/07/23 01:26:08;;;;;;;18.23;10.80;;;;;;;19.32;64.60;98850.16;1365550;82;81826;-73
2022/07/23 01:28:09;;;;;;;14.35;10.75;;;;;;;19.27;64.63;98847.03;1371303;84;21077;-72
2022/07/23 01:30:11;;;;;;;13.80;11.33;;;;;;;19.25;64.70;98842.83;1365961;84;81251;-72
2022/07/23 01:32:12;;;;;;;14.87;10.78;;;;;;;19.22;64.78;98841.27;1368624;83;21054;-73
2022/07/23 01:34:14;;;;;;;15.43;10.98;;;;;;;19.16;64.79;98846.66;1370060;83;21070;-73
2022/07/23 01:36:16;;;;;;;15.75;11.80;;;;;;;19.13;64.83;98843.39;1365669;82;82297;-73
2022/07/23 01:38:19;;;;;;;14.20;10.38;;;;;;;19.11;64.88;98846.19;1367138;84;21078;-73
2022/07/23 01:40:20;;;;;;;14.78;11.18;;;;;;;19.10;65.00;98849.83;1368651;84;81881;-73
2022/07/23 01:42:21;;;;;;;24.90;11.70;;;;;;;19.08;64.94;98850.47;1369801;84;21073;-72
2022/07/23 01:44:24;;;;;;;14.35;11.15;;;;;;;19.04;65.03;98851.70;1360173;85;21051;-72
2022/07/23 01:46:25;;;;;;;15.55;12.82;;;;;;;19.02;65.12;98855.85;1338168;85;82093;-72
2022/07/23 01:48:26;;;;;;;31.70;12.95;;;;;;;19.00;65.22;98858.29;1358669;85;21573;-73
2022/07/23 01:50:27;;;;;;;16.50;12.45;;;;;;;18.97;65.33;98853.19;1351246;85;81749;-73
2022/07/23 01:52:28;;;;;;;26.02;12.20;;;;;;;18.95;65.37;98853.32;1357838;85;21680;-73
2022/07/23 01:54:31;;;;;;;23.45;12.90;;;;;;;18.94;65.45;98856.99;1354687;85;81268;-72
2022/07/23 01:56:32;;;;;;;19.85;13.55;;;;;;;18.93;65.52;98859.77;1355499;84;21042;-72
2022/07/23 01:58:38;;;;;;;17.90;12.60;;;;;;;18.91;65.55;98861.73;1359027;84;21081;-73
2022/07/23 02:00:39;;;;;;;28.15;13.08;;;;;;;18.88;65.64;98851.69;1350494;86;82393;-73
2022/07/23 02:02:40;;;;;;;22.05;13.85;;;;;;;18.87;65.70;98853.98;1357219;85;21034;-73
2022/07/23 02:04:41;;;;;;;22.13;14.45;;;;;;;18.84;65.74;98854.22;1354235;84;81286;-71
2022/07/23 02:06:44;;;;;;;15.72;13.93;;;;;;;18.82;65.83;98853.48;1357587;85;21538;-72
2022/07/23 02:08:45;;;;;;;18.57;14.10;;;;;;;18.79;65.92;98848.42;1357908;84;21006;-73
2022/07/23 02:10:46;;;;;;;24.25;13.95;;;;;;;18.78;66.00;98850.72;1357899;84;81982;-73
2022/07/23 02:12:47;;;;;;;21.37;15.10;;;;;;;18.77;66.04;98846.84;1355084;84;21034;-73
2022/07/23 02:14:48;;;;;;;18.50;14.58;;;;;;;18.75;66.05;98853.66;1354252;85;81438;-73
2022/07/23 02:16:50;;;;;;;21.95;14.38;;;;;;;18.74;66.10;98857.30;1355705;84;21125;-72
2022/07/23 02:18:52;;;;;;;16.70;13.95;;;;;;;18.73;66.19;98851.59;1358003;85;21058;-71
2022/07/23 02:20:55;;;;;;;16.30;14.40;;;;;;;18.71;66.22;98855.72;1354110;84;81142;-72
2022/07/23 02:22:56;;;;;;;18.62;13.60;;;;;;;18.69;66.23;98855.02;1354301;85;21593;-74
2022/07/23 02:24:57;;;;;;;15.63;13.40;;;;;;;18.68;66.26;98853.82;1355479;84;81078;-72
2022/07/23 02:26:59;;;;;;;20.17;13.38;;;;;;;18.68;66.35;98856.48;1355814;84;21046;-72
2022/07/23 02:29:04;;;;;;;15.45;12.82;;;;;;;18.68;66.40;98860.49;1355995;85;21054;-73
2022/07/23 02:31:06;;;;;;;15.08;13.62;;;;;;;18.69;66.40;98860.83;1352343;84;81571;-71
2022/07/23 02:33:07;;;;;;;14.93;13.40;;;;;;;18.69;66.45;98855.48;1354327;85;21070;-71
2022/07/23 02:35:08;;;;;;;14.83;13.40;;;;;;;18.69;66.47;98855.02;1353898;84;81197;-72
2022/07/23 02:37:11;;;;;;;17.82;12.47;;;;;;;18.71;66.44;98861.06;1356964;84;21897;-72
2022/07/23 02:39:14;;;;;;;23.12;14.23;;;;;;;18.71;66.48;98848.22;1352151;85;21007;-72
2022/07/23 02:41:15;;;;;;;19.92;13.72;;;;;;;18.71;66.52;98852.22;1342104;85;81254;-71
2022/07/23 02:43:16;;;;;;;24.52;13.88;;;;;;;18.70;66.56;98850.52;1344538;86;23310;-72
2022/07/23 02:45:17;;;;;;;15.13;12.25;;;;;;;18.69;66.57;98852.82;1368654;84;81104;-73
2022/07/23 02:47:18;;;;;;;21.70;12.13;;;;;;;18.64;66.59;98855.05;1369931;83;21065;-73
2022/07/23 02:49:19;;;;;;;23.52;12.25;;;;;;;18.54;66.59;98853.14;1373146;83;21145;-72
2022/07/23 02:51:21;;;;;;;12.90;11.60;;;;;;;18.48;66.66;98853.63;1367099;84;80885;-72
2022/07/23 02:53:23;;;;;;;13.40;11.63;;;;;;;18.46;66.70;98859.60;1373469;84;21065;-72
2022/07/23 02:55:26;;;;;;;16.70;12.10;;;;;;;18.40;66.74;98866.80;1369345;83;81098;-72
2022/07/23 02:57:27;;;;;;;14.40;11.97;;;;;;;18.38;66.82;98862.05;1370385;84;21093;-73
2022/07/23 02:59:28;;;;;;;15.70;12.28;;;;;;;18.35;66.90;98867.66;1373408;83;21041;-74
2022/07/23 03:01:29;;;;;;;17.52;12.68;;;;;;;18.34;66.96;98865.95;1370798;83;81731;-72
2022/07/23 03:03:31;;;;;;;23.05;13.83;;;;;;;18.33;67.04;98865.12;1369897;84;22321;-72
2022/07/23 03:05:32;;;;;;;17.35;13.75;;;;;;;18.31;67.12;98867.55;1369690;84;81130;-73
2022/07/23 03:07:33;;;;;;;13.78;12.25;;;;;;;18.30;67.16;98858.67;1370504;83;21077;-71
2022/07/23 03:09:34;;;;;;;21.23;13.28;;;;;;;18.30;67.22;98857.34;1371116;84;81200;-71
2022/07/23 03:11:35;;;;;;;21.37;13.05;;;;;;;18.30;67.28;98854.67;1372967;84;21061;-71
2022/07/23 03:13:37;;;;;;;18.57;13.15;;;;;;;18.28;67.33;98849.96;1370673;83;21149;-72
2022/07/23 03:15:38;;;;;;;16.07;13.10;;;;;;;18.27;67.35;98852.76;1367704;84;81870;-73
2022/07/23 03:17:39;;;;;;;20.62;12.63;;;;;;;18.25;67.43;98845.35;1373642;83;21052;-72
2022/07/23 03:19:40;;;;;;;18.75;12.43;;;;;;;18.26;67.48;98851.89;1366532;83;81377;-73
2022/07/23 03:21:41;;;;;;;;;;;;;;;18.28;67.49;98850.46;1370980;84;21045;-71
2022/07/23 03:23:42;;;;;;;31.55;12.37;;;;;;;18.30;67.59;98852.50;1374143;84;20469;-71
2022/07/23 03:25:43;;;;;;;22.77;11.73;;;;;;;18.29;67.51;98853.00;1366875;83;82068;-73
2022/07/23 03:27:45;;;;;;;27.42;12.15;;;;;;;18.29;67.50;98851.66;1371841;84;21021;-73
2022/07/23 03:29:47;;;;;;;28.57;12.73;;;;;;;18.28;67.49;98843.30;1367865;83;82452;-72
2022/07/23 03:31:49;;;;;;;25.90;12.63;;;;;;;18.27;67.56;98845.59;1370088;83;21395;-72
2022/07/23 03:33:50;;;;;;;29.80;13.13;;;;;;;18.27;67.57;98843.42;1367910;84;21279;-72
2022/07/23 03:35:51;;;;;;;25.37;12.58;;;;;;;18.29;67.62;98842.80;1371923;84;81145;-74
2022/07/23 03:37:52;;;;;;;29.40;11.97;;;;;;;18.31;67.65;98840.86;1370789;83;21608;-72
2022/07/23 03:39:54;;;;;;;24.60;12.10;;;;;;;18.36;67.66;98844.01;1370303;84;81826;-72
2022/07/23 03:41:55;;;;;;;23.60;12.03;;;;;;;18.37;67.66;98845.67;1368940;84;21029;-71
2022/07/23 03:43:56;;;;;;;27.42;12.50;;;;;;;18.41;67.66;98836.94;1367968;84;21070;-73
2022/07/23 03:45:57;;;;;;;23.40;12.60;;;;;;;18.43;67.65;98835.84;1342773;87;81321;-73
2022/07/23 03:47:58;;;;;;;13.88;11.70;;;;;;;18.44;67.65;98836.22;1357334;84;21054;-72
2022/07/23 03:49:59;;;;;;;17.57;11.22;;;;;;;18.49;67.66;98841.16;1354423;85;81913;-72
2022/07/23 03:52:01;;;;;;;13.25;11.50;;;;;;;18.51;67.64;98841.39;1354489;84;21086;-71
2022/07/23 03:54:02;;;;;;;14.33;11.22;;;;;;;18.53;67.60;98838.59;1358006;84;22146;-72
2022/07/23 03:56:04;;;;;;;18.40;11.68;;;;;;;18.54;67.57;98838.95;1353237;84;81066;-72
2022/07/23 03:58:05;;;;;;;20.02;12.07;;;;;;;18.54;67.58;98835.79;1354079;85;21026;-71
2022/07/23 04:00:12;;;;;;;21.77;12.18;;;;;;;18.55;67.67;98844.63;1354217;85;81043;-72
2022/07/23 04:02:14;;;;;;;20.97;12.20;;;;;;;18.53;67.75;98850.10;1333047;85;21031;-72
2022/07/23 04:04:15;;;;;;;39.40;12.07;;;;;;;18.53;67.89;98846.09;1353013;85;21338;-73
2022/07/23 04:06:16;;;;;;;13.38;11.95;;;;;;;18.53;67.95;98838.09;1353956;85;82375;-72
2022/07/23 04:08:17;;;;;;;28.73;12.25;;;;;;;18.55;67.96;98836.16;1356458;84;21015;-72
2022/07/23 04:10:18;;;;;;;16.30;12.13;;;;;;;18.60;67.91;98841.60;1354584;84;81882;-73
2022/07/23 04:12:20;;;;;;;24.92;11.90;;;;;;;18.64;67.87;98841.20;1353193;86;21657;-71
2022/07/23 04:14:20;;;;;;;23.25;12.20;;;;;;;18.66;67.84;98837.94;1355885;84;21014;-72
2022/07/23 04:16:22;;;;;;;18.35;12.88;;;;;;;18.70;67.86;98843.84;1353220;84;82263;-72
2022/07/23 04:18:23;;;;;;;18.95;11.95;;;;;;;18.71;67.84;98842.37;1353210;85;21058;-72
2022/07/23 04:20:24;;;;;;;20.08;12.20;;;;;;;18.74;67.84;98843.94;1353057;85;81881;-71
2022/07/23 04:22:25;;;;;;;18.92;11.75;;;;;;;18.77;67.83;98838.34;1355341;85;21623;-73
2022/07/23 04:24:27;;;;;;;18.60;11.97;;;;;;;18.82;67.79;98841.97;1353279;85;22096;-71
2022/07/23 04:26:28;;;;;;;20.37;12.50;;;;;;;18.85;67.75;98838.53;1352816;84;81083;-72
2022/07/23 04:28:29;;;;;;;15.28;11.50;;;;;;;18.89;67.74;98840.00;1356282;85;21255;-73
2022/07/23 04:30:30;;;;;;;33.85;11.57;;;;;;;18.94;67.72;98836.09;1352678;85;82249;-71
2022/07/23 04:32:31;;;;;;;22.02;11.60;;;;;;;18.96;67.72;98830.14;1356561;84;21624;-73
2022/07/23 04:34:32;;;;;;;18.05;11.80;;;;;;;18.99;67.79;98826.70;1355151;85;81869;-70
2022/07/23 04:36:33;;;;;;;11.88;10.63;;;;;;;19.03;67.76;98821.45;1353553;85;21027;-71
2022/07/23 04:38:34;;;;;;;19.48;10.98;;;;;;;19.11;67.72;98827.99;1356995;85;21123;-72
2022/07/23 04:40:35;;;;;;;24.98;12.15;;;;;;;19.17;67.66;98824.78;1349706;85;81008;-72
2022/07/23 04:42:36;;;;;;;20.60;11.33;;;;;;;19.25;67.62;98821.45;1355583;85;21098;-72
2022/07/23 04:44:37;;;;;;;16.55;12.28;;;;;;;19.32;67.59;98828.78;1357459;83;81258;-72
2022/07/23 04:46:39;;;;;;;25.90;12.98;;;;;;;19.39;67.55;98828.59;1368843;84;21077;-73
2022/07/23 04:48:41;;;;;;;21.05;12.37;;;;;;;19.46;67.48;98823.56;1370332;84;21073;-72
2022/07/23 04:50:43;;;;;;;24.12;13.28;;;;;;;19.52;67.44;98827.06;1364560;83;82385;-72
2022/07/23 04:52:43;;;;;;;27.60;13.45;;;;;;;19.58;67.43;98827.00;1369029;83;21703;-73
2022/07/23 04:54:45;;;;;;;20.27;12.45;;;;;;;19.65;67.43;98834.83;1366813;84;81347;-72
2022/07/23 04:56:46;;;;;;;23.98;12.85;;;;;;;19.73;67.41;98839.52;1369129;83;21096;-72
2022/07/23 04:58:46;;;;;;;19.85;12.93;;;;;;;19.79;67.41;98837.63;1371310;83;21058;-71
2022/07/23 05:00:48;;;;;;;24.35;13.60;;;;;;;19.86;67.39;98828.09;1367766;85;82277;-72
2022/07/23 05:02:49;;;;;;;23.12;12.75;;;;;;;19.94;67.36;98828.75;1368222;84;21553;-73
2022/07/23 05:04:50;;;;;;;26.25;13.15;;;;;;;20.01;67.36;98822.37;1369825;83;82236;-72
2022/07/23 05:06:51;;;;;;;19.65;13.45;;;;;;;20.10;67.34;98829.55;1372574;84;21073;-72
2022/07/23 05:08:54;;;;;;;17.27;13.72;;;;;;;20.17;67.31;98821.34;1367524;83;21072;-74
2022/07/23 05:10:55;;;;;;;27.45;13.55;;;;;;;20.24;67.29;98820.27;1364397;83;81744;-73
2022/07/23 05:12:56;;;;;;;25.35;14.30;;;;;;;20.31;67.26;98821.89;1366556;85;21132;-72
2022/07/23 05:14:57;;;;;;;27.22;13.85;;;;;;;20.38;67.24;98820.34;1368294;83;81047;-72
2022/07/23 05:16:58;;;;;;;21.70;13.80;;;;;;;20.44;67.29;98820.30;1367516;83;21157;-72
2022/07/23 05:18:59;;;;;;;26.12;13.85;;;;;;;20.50;67.22;98820.55;1369870;83;21608;-73
2022/07/23 05:21:00;;;;;;;22.48;13.55;;;;;;;20.56;67.24;98824.02;1359841;84;81286;-72
2022/07/23 05:23:03;;;;;;;21.85;13.35;;;;;;;20.62;67.20;98821.27;1369850;83;21069;-73
2022/07/23 05:25:05;;;;;;;31.02;13.88;;;;;;;20.68;67.17;98816.70;1364469;83;81716;-72
2022/07/23 05:27:06;;;;;;;29.05;13.32;;;;;;;20.75;67.07;98820.52;1368250;83;21077;-73
2022/07/23 05:29:07;;;;;;;18.07;13.35;;;;;;;20.82;67.03;98818.59;1370460;83;21492;-73
2022/07/23 05:31:08;;;;;;;35.90;13.35;;;;;;;20.90;67.04;98826.25;1363154;84;81217;-72
2022/07/23 05:33:09;;;;;;;20.92;14.45;;;;;;;21.01;67.11;98828.44;1370422;83;21628;-72
2022/07/23 05:35:11;;;;;;;25.20;13.95;;;;;;;21.11;67.02;98823.88;1368955;83;81788;-72
2022/07/23 05:37:12;;;;;;;19.10;13.78;;;;;;;21.19;66.97;98822.66;1368615;83;21607;-71
2022/07/23 05:39:13;;;;;;;22.73;14.60;;;;;;;21.29;66.93;98824.47;1370100;83;21251;-73
2022/07/23 05:41:14;;;;;;;24.75;14.00;;;;;;;21.35;66.84;98826.55;1368785;83;81911;-72
2022/07/23 05:43:15;;;;;;;31.77;13.70;;;;;;;21.43;66.82;98825.33;1366082;83;21406;-73
2022/07/23 05:45:16;;;;;;;24.87;13.98;;;;;;;21.50;66.74;98818.41;1360700;83;81080;-72
2022/07/23 05:47:17;;;;;;;24.72;14.13;;;;;;;21.59;66.69;98823.40;1355175;84;21050;-73
2022/07/23 05:49:18;;;;;;;20.57;12.98;;;;;;;21.63;66.59;98818.56;1354387;85;21022;-72
2022/07/23 05:51:25;;;;;;;30.50;13.85;;;;;;;21.68;66.52;98818.49;1354437;85;81902;-73
2022/07/23 05:53:26;;;;;;;21.82;14.33;;;;;;;21.75;66.53;98812.00;1353852;85;21089;-72
2022/07/23 05:55:28;;;;;;;25.95;14.07;;;;;;;21.83;66.53;98813.95;1352060;85;82306;-72
2022/07/23 05:57:29;;;;;;;24.98;13.65;;;;;;;21.92;66.46;98817.92;1355791;85;21070;-73
2022/07/23 05:59:31;;;;;;;22.75;13.58;;;;;;;21.98;66.51;98815.63;1356337;84;82236;-71
2022/07/23 06:01:32;;;;;;;18.95;14.03;;;;;;;22.07;66.47;98816.05;1356115;84;21075;-70
2022/07/23 06:03:33;;;;;;;20.77;13.80;;;;;;;22.14;66.37;98817.63;1357538;86;21578;-73
2022/07/23 06:05:34;;;;;;;23.27;14.38;;;;;;;22.20;66.31;98815.19;1355405;84;81039;-72
2022/07/23 06:07:36;;;;;;;15.80;12.55;;;;;;;22.26;66.32;98817.28;1354995;84;21018;-72
2022/07/23 06:09:37;;;;;;;32.53;14.25;;;;;;;22.33;66.21;98813.45;1352169;85;81969;-73
2022/07/23 06:11:38;;;;;;;20.52;13.75;;;;;;;22.40;66.11;98814.58;1356432;84;21059;-72
2022/07/23 06:13:39;;;;;;;22.75;13.70;;;;;;;22.47;66.16;98812.09;1356245;84;21137;-71
2022/07/23 06:15:40;;;;;;;21.95;14.05;;;;;;;22.55;66.14;98813.52;1353133;85;81918;-73
2022/07/23 06:17:41;;;;;;;19.55;13.58;;;;;;;22.63;65.98;98806.55;1340300;86;21793;-72
2022/07/23 06:19:42;;;;;;;26.97;14.53;;;;;;;22.70;65.90;98806.27;1354131;84;81401;-73
2022/07/23 06:21:43;;;;;;;21.55;15.20;;;;;;;22.77;65.83;98805.97;1355378;85;21050;-72
2022/07/23 06:23:44;;;;;;;22.27;14.87;;;;;;;22.86;65.72;98806.39;1355214;84;21573;-72
2022/07/23 06:25:45;;;;;;;26.35;14.40;;;;;;;22.94;65.72;98798.38;1353972;84;81887;-72
2022/07/23 06:27:47;;;;;;;39.73;16.05;;;;;;;23.01;65.71;98796.39;1354746;85;21015;-72
2022/07/23 06:29:48;;;;;;;28.35;15.95;;;;;;;23.08;65.65;98790.72;1354628;84;82076;-72
2022/07/23 06:31:49;;;;;;;21.15;17.30;;;;;;;23.17;65.62;98792.49;1360217;85;21559;-72
2022/07/23 06:33:50;;;;;;;26.05;16.57;;;;;;;23.26;65.45;98792.89;1355561;85;21014;-72
2022/07/23 06:35:51;;;;;;;31.62;17.32;;;;;;;23.34;65.50;98793.92;1354165;85;81180;-72
2022/07/23 06:37:52;;;;;;;27.90;17.25;;;;;;;23.42;65.48;98787.24;1358374;85;21092;-73
2022/07/23 06:39:53;;;;;;;26.02;17.15;;;;;;;23.50;65.35;98792.66;1354248;85;81110;-73
2022/07/23 06:41:54;;;;;;;24.70;16.62;;;;;;;23.58;65.26;98790.00;1358759;85;21073;-73
2022/07/23 06:43:55;;;;;;;19.48;15.98;;;;;;;23.66;65.25;98785.65;1357587;85;21050;-72
2022/07/23 06:45:56;;;;;;;21.73;17.45;;;;;;;23.74;65.26;98778.95;1335428;87;82115;-73
2022/07/23 06:47:57;;;;;;;23.10;15.95;;;;;;;23.81;65.20;98781.32;1359028;85;21067;-72
2022/07/23 06:49:58;;;;;;;22.37;16.45;;;;;;;23.93;65.22;98780.05;1352801;83;81141;-72
2022/07/23 06:51:59;;;;;;;22.75;15.95;;;;;;;24.02;64.91;98780.06;1355312;85;21018;-71
2022/07/23 06:54:00;;;;;;;29.40;17.45;;;;;;;24.10;64.77;98786.80;1357969;85;21031;-72
2022/07/23 06:56:01;;;;;;;25.55;15.10;;;;;;;24.18;64.58;98779.26;1354183;85;81140;-72
2022/07/23 06:58:02;;;;;;;24.10;15.58;;;;;;;24.25;64.49;98781.10;1357025;85;21502;-71
2022/07/23 07:00:04;;;;;;;22.13;16.00;;;;;;;24.32;64.36;98778.59;1351932;85;81869;-71
2022/07/23 07:02:07;;;;;;;26.50;15.72;;;;;;;24.40;64.16;98778.59;1358300;85;21067;-73
2022/07/23 07:04:08;;;;;;;21.45;15.20;;;;;;;24.48;64.00;98772.38;1354284;85;21047;-72
2022/07/23 07:06:09;;;;;;;20.65;15.35;;;;;;;24.56;63.76;98772.38;1353768;84;82008;-72
2022/07/23 07:08:10;;;;;;;23.65;15.23;;;;;;;24.65;63.70;98771.38;1356409;85;21046;-72
2022/07/23 07:10:11;;;;;;;21.48;13.78;;;;;;;24.74;63.49;98769.53;1353964;83;81130;-72
2022/07/23 07:12:12;;;;;;;20.27;14.45;;;;;;;24.80;63.61;98770.18;1341203;86;21063;-72
2022/07/23 07:14:13;;;;;;;23.10;14.38;;;;;;;24.86;63.50;98764.61;1358340;84;21629;-72
2022/07/23 07:16:14;;;;;;;17.82;13.20;;;;;;;24.95;63.36;98768.98;1352609;84;81906;-73
2022/07/23 07:18:15;;;;;;;23.38;13.25;;;;;;;25.03;63.26;98761.88;1357519;84;21574;-72
2022/07/23 07:20:16;;;;;;;33.92;13.13;;;;;;;25.12;63.26;98768.95;1353481;84;81684;-73
2022/07/23 07:22:17;;;;;;;26.17;13.03;;;;;;;25.21;63.17;98768.41;1356943;85;21538;-72
2022/07/23 07:24:18;;;;;;;18.57;13.05;;;;;;;25.28;63.16;98768.03;1358868;84;21099;-72
2022/07/23 07:26:19;;;;;;;23.12;13.13;;;;;;;25.44;63.06;98772.58;1353667;84;82106;-72
2022/07/23 07:28:20;;;;;;;22.05;11.75;;;;;;;25.52;63.05;98766.28;1354730;85;21094;-73
2022/07/23 07:30:21;;;;;;;22.82;11.68;;;;;;;25.66;62.76;98763.69;1352826;85;81245;-72
2022/07/23 07:32:22;;;;;;;17.30;11.28;;;;;;;25.81;62.74;98761.61;1355288;85;21613;-73
2022/07/23 07:34:23;;;;;;;25.55;12.18;;;;;;;25.97;62.55;98763.36;1356224;85;21027;-72
2022/07/23 07:36:24;;;;;;;19.98;11.45;;;;;;;26.13;62.25;98755.70;1353101;83;81793;-72
2022/07/23 07:38:25;;;;;;;14.50;10.95;;;;;;;26.20;62.06;98754.44;1341184;86;21092;-72
2022/07/23 07:40:27;;;;;;;15.10;11.33;;;;;;;26.29;61.82;98749.31;1357656;85;81911;-72
2022/07/23 07:42:29;;;;;;;25.72;10.75;;;;;;;26.32;61.75;98744.89;1355828;85;21026;-73
2022/07/23 07:44:30;;;;;;;14.65;11.00;;;;;;;26.39;61.63;98751.28;1354479;84;22325;-73
2022/07/23 07:46:31;;;;;;;21.37;10.53;;;;;;;26.49;61.62;98744.27;1355526;83;80821;-72
2022/07/23 07:48:32;;;;;;;16.87;9.50;;;;;;;26.67;61.44;98742.05;1354941;85;21072;-73
2022/07/23 07:50:33;;;;;;;15.03;10.72;;;;;;;26.86;60.99;98745.27;1355379;85;81031;-73
2022/07/23 07:52:40;;;;;;;27.07;10.55;;;;;;;27.03;60.82;98740.55;1354646;85;21043;-73
2022/07/23 07:54:38;;;;;;;21.62;11.12;;;;;;;27.09;60.63;98736.26;1331308;86;82690;-73
2022/07/23 07:56:39;;;;;;;14.53;10.20;;;;;;;27.17;60.38;98749.17;1357317;85;21103;-74
2022/07/23 07:58:40;;;;;;;11.55;9.58;;;;;;;27.16;60.19;98751.54;1356391;85;21044;-74
2022/07/23 08:00:41;;;;;;;18.23;9.90;;;;;;;27.22;60.13;98749.98;1355045;85;82327;-74
2022/07/23 08:02:47;;;;;;;17.30;8.75;;;;;;;27.37;59.79;98754.56;1354344;85;21068;-74
2022/07/23 08:04:48;;;;;;;13.72;8.73;;;;;;;27.40;59.37;98756.88;1353887;85;82066;-71
2022/07/23 08:06:49;;;;;;;13.08;9.20;;;;;;;27.42;59.24;98762.97;1357291;84;21107;-74
2022/07/23 08:08:50;;;;;;;13.32;9.38;;;;;;;27.45;59.12;98766.12;1357424;85;21064;-72
2022/07/23 08:10:51;;;;;;;18.07;9.58;;;;;;;27.54;58.76;98766.87;1357442;85;81698;-72
2022/07/23 08:12:56;;;;;;;19.67;9.28;;;;;;;27.55;58.53;98770.41;1354637;85;21087;-73
2022/07/23 08:14:57;;;;;;;11.73;10.08;;;;;;;27.57;58.54;98777.32;1353958;85;81566;-73
2022/07/23 08:16:58;;;;;;;15.93;8.98;;;;;;;27.58;58.39;98772.23;1355429;85;21670;-73
2022/07/23 08:18:59;;;;;;;11.57;9.55;;;;;;;27.59;58.45;98771.19;1353569;85;21355;-72
2022/07/23 08:21:00;;;;;;;18.00;9.83;;;;;;;27.63;58.25;98772.48;1352078;85;81542;-72
2022/07/23 08:23:03;;;;;;;11.73;9.50;;;;;;;27.66;58.04;98772.13;1357833;85;21677;-72
2022/07/23 08:25:05;;;;;;;17.42;10.10;;;;;;;27.72;57.86;98771.03;1353872;85;80913;-72
2022/07/23 08:27:06;;;;;;;21.30;9.95;;;;;;;27.80;57.71;98768.20;1356576;85;21003;-72
2022/07/23 08:29:07;;;;;;;16.90;9.18;;;;;;;27.84;57.65;98768.16;1337834;87;21054;-72
2022/07/23 08:31:10;;;;;;;18.12;8.93;;;;;;;27.89;57.29;98770.31;1354284;84;82149;-72
2022/07/23 08:33:14;;;;;;;17.77;8.68;;;;;;;27.94;57.16;98771.41;1356046;85;21566;-72
2022/07/23 08:35:15;;;;;;;16.57;8.70;;;;;;;28.05;56.91;98768.72;1356765;84;81713;-72
2022/07/23 08:37:16;;;;;;;14.45;8.25;;;;;;;28.17;56.84;98766.36;1355619;85;21617;-71
2022/07/23 08:39:17;;;;;;;12.20;8.65;;;;;;;28.30;56.79;98766.49;1354545;85;21003;-73
2022/07/23 08:41:18;;;;;;;15.45;9.50;;;;;;;28.52;56.85;98765.11;1356554;84;82072;-72
2022/07/23 08:43:22;;;;;;;14.33;8.45;;;;;;;28.89;56.45;98765.84;1354128;85;21019;-73
2022/07/23 08:45:25;;;;;;;9.75;8.75;;;;;;;29.15;56.24;98765.19;1357776;84;80941;-74
2022/07/23 08:47:26;;;;;;;15.10;9.35;;;;;;;29.34;56.04;98756.88;1374366;84;21525;-73
2022/07/23 08:49:28;;;;;;;14.20;8.45;;;;;;;29.52;55.80;98758.19;1368787;84;21297;-74
2022/07/23 08:51:29;;;;;;;15.68;9.30;;;;;;;29.67;55.44;98758.91;1367717;82;81605;-73
2022/07/23 08:53:32;;;;;;;14.53;9.15;;;;;;;29.81;54.81;98757.57;1371299;84;21037;-73
2022/07/23 08:55:33;;;;;;;19.85;8.78;;;;;;;29.94;54.83;98754.93;1367596;84;81744;-73
2022/07/23 08:57:35;;;;;;;14.00;9.10;;;;;;;30.08;54.73;98746.81;1371230;84;21029;-73
2022/07/23 08:59:36;;;;;;;12.63;9.70;;;;;;;30.22;54.42;98745.25;1366897;82;82286;-73
2022/07/23 09:01:38;;;;;;;19.27;8.88;;;;;;;30.29;53.85;98738.47;1370453;84;21042;-73
2022/07/23 09:03:39;;;;;;;16.02;8.90;;;;;;;30.29;53.50;98734.38;1374910;84;21038;-73
2022/07/23 09:05:40;;;;;;;15.90;9.23;;;;;;;30.34;53.64;98733.25;1371151;84;81661;-73
2022/07/23 09:08:07;;;;;;;11.50;7.92;;;;;;;30.38;53.38;98735.86;1366706;84;21134;-71
2022/07/23 09:10:11;;;;;;;12.58;8.23;;;;;;;30.48;53.42;98725.95;1367410;82;80969;-73
2022/07/23 09:12:11;;;;;;;16.00;8.60;;;;;;;30.62;53.16;98724.06;1370100;84;21023;-72
2022/07/23 09:14:13;;;;;;;17.32;8.30;;;;;;;30.71;53.00;98726.89;1368679;84;21014;-73
2022/07/23 09:16:21;;;;;;;11.75;8.90;;;;;;;30.75;52.18;98731.37;1369412;82;81886;-71
2022/07/23 09:18:39;;;;;;;21.00;8.00;;;;;;;30.73;52.23;98727.50;1373489;83;21081;-73
2022/07/23 09:20:40;;;;;;;15.75;8.73;;;;;;;30.73;51.99;98724.78;1369596;84;81686;-74